createdAt,value
2024-03-09T00:00:30.299Z,42.22
2024-03-09T00:02:59.556Z,45.83
2024-03-09T00:05:27.643Z,46.45
2024-03-09T00:07:57.029Z,52.88
2024-03-09T00:10:25.595Z,51.25
2024-03-09T00:12:52.789Z,52.40
2024-03-09T00:15:21.324Z,51.17
2024-03-09T00:17:49.738Z,48.65
2024-03-09T00:20:20.861Z,48.33
2024-03-09T00:22:48.034Z,44.20
2024-03-09T00:25:16.014Z,40.65
2024-03-09T00:27:43.477Z,40.55
2024-03-09T00:30:20.386Z,40.53
2024-03-09T00:32:49.973Z,41.47
2024-03-09T00:35:17.222Z,39.47
2024-03-09T00:37:44.864Z,38.90
2024-03-09T00:40:12.356Z,39.67
2024-03-09T00:42:40.258Z,48.47
2024-03-09T00:45:09.286Z,52.40
2024-03-09T00:47:38.153Z,52.85
2024-03-09T00:50:10.002Z,51.75
2024-03-09T00:52:37.979Z,49.88
2024-03-09T00:55:11.802Z,48.50
2024-03-09T00:57:39.383Z,41.53
2024-03-09T01:00:17.419Z,40.30
2024-03-09T01:02:45.824Z,43.75
2024-03-09T01:05:13.811Z,41.80
2024-03-09T01:07:41.028Z,44.88
2024-03-09T01:10:10.315Z,46.63
2024-03-09T01:12:38.047Z,48.28
2024-03-09T01:15:08.060Z,48.92
2024-03-09T01:20:09.393Z,42.17
2024-03-09T01:22:38.402Z,43.80
2024-03-09T01:25:07.774Z,40.97
2024-03-09T01:27:37.092Z,39.07
2024-03-09T01:30:06.985Z,39.22
2024-03-09T01:32:34.338Z,37.38
2024-03-09T01:35:02.914Z,36.17
2024-03-09T01:37:30.309Z,35.75
2024-03-09T01:39:58.037Z,35.85
2024-03-09T01:42:25.256Z,36.05
2024-03-09T01:44:52.696Z,35.35
2024-03-09T01:47:23.458Z,36.72
2024-03-09T01:49:53.848Z,36.53
2024-03-09T01:52:34.459Z,35.10
2024-03-09T01:55:05.927Z,36.08
2024-03-09T01:57:34.480Z,34.95
2024-03-09T02:00:03.159Z,36.17
2024-03-09T02:02:32.089Z,33.58
2024-03-09T02:04:59.568Z,36.15
2024-03-09T02:07:26.836Z,35.13
2024-03-09T02:09:54.432Z,35.08
2024-03-09T02:12:24.375Z,35.88
2024-03-09T02:14:51.394Z,34.60
2024-03-09T02:17:18.433Z,36.85
2024-03-09T02:19:45.563Z,34.85
2024-03-09T02:22:17.504Z,37.05
2024-03-09T02:24:56.656Z,37.03
2024-03-09T02:27:27.320Z,35.77
2024-03-09T02:29:54.958Z,37.25
2024-03-09T02:32:23.393Z,39.22
2024-03-09T02:34:51.059Z,37.72
2024-03-09T02:37:21.479Z,37.78
2024-03-09T02:39:48.675Z,37.33
2024-03-09T02:42:15.748Z,37.90
2024-03-09T02:44:43.412Z,35.95
2024-03-09T02:47:11.784Z,34.10
2024-03-09T02:49:40.561Z,34.33
2024-03-09T02:52:07.992Z,34.85
2024-03-09T02:54:37.622Z,35.40
2024-03-09T02:57:07.750Z,36.40
2024-03-09T02:59:36.491Z,34.95
2024-03-09T03:02:15.446Z,35.60
2024-03-09T03:04:42.527Z,35.67
2024-03-09T03:07:10.598Z,36.45
2024-03-09T03:09:37.758Z,37.00
2024-03-09T03:12:09.365Z,37.40
2024-03-09T03:14:36.741Z,35.97
2024-03-09T03:17:03.921Z,38.42
2024-03-09T03:19:30.966Z,38.33
2024-03-09T03:21:58.031Z,38.83
2024-03-09T03:24:26.418Z,38.55
2024-03-09T03:26:53.430Z,37.20
2024-03-09T03:29:21.680Z,40.17
2024-03-09T03:31:49.266Z,39.50
2024-03-09T03:34:16.280Z,39.70
2024-03-09T03:36:44.018Z,42.55
2024-03-09T03:39:14.551Z,40.10
2024-03-09T03:41:43.366Z,41.35
2024-03-09T03:44:14.139Z,38.13
2024-03-09T03:46:41.281Z,36.80
2024-03-09T03:49:08.317Z,39.10
2024-03-09T03:51:35.336Z,38.60
2024-03-09T03:54:02.535Z,38.28
2024-03-09T03:56:29.704Z,37.55
2024-03-09T03:58:56.707Z,38.13
2024-03-09T04:01:25.024Z,39.50
2024-03-09T04:03:52.189Z,40.17
2024-03-09T04:06:20.518Z,38.28
2024-03-09T04:08:47.630Z,39.25
2024-03-09T04:11:15.588Z,40.30
2024-03-09T04:13:42.968Z,40.28
2024-03-09T04:16:10.258Z,39.80
2024-03-09T04:18:37.849Z,41.53
2024-03-09T04:21:05.688Z,41.75
2024-03-09T04:23:32.886Z,39.35
2024-03-09T04:26:00.157Z,40.70
2024-03-09T04:28:30.197Z,39.30
2024-03-09T04:31:01.086Z,39.58
2024-03-09T04:33:29.799Z,39.13
2024-03-09T04:35:58.531Z,39.13
2024-03-09T04:38:27.417Z,38.28
2024-03-09T04:40:54.648Z,37.08
2024-03-09T04:43:21.722Z,39.47
2024-03-09T04:45:52.353Z,39.33
2024-03-09T04:48:20.476Z,40.40
2024-03-09T04:50:49.266Z,40.38
2024-03-09T04:53:18.487Z,39.53
2024-03-09T04:55:50.706Z,41.10
2024-03-09T04:58:20.148Z,39.58
2024-03-09T05:00:47.480Z,39.50
2024-03-09T05:03:15.903Z,41.60
2024-03-09T05:05:44.710Z,39.92
2024-03-09T05:08:12.690Z,40.22
2024-03-09T05:10:40.972Z,40.72
2024-03-09T05:13:09.585Z,40.38
2024-03-09T05:15:37.670Z,40.17
2024-03-09T05:18:10.124Z,40.53
2024-03-09T05:20:38.284Z,39.30
2024-03-09T05:23:11.798Z,38.38
2024-03-09T05:25:42.276Z,40.33
2024-03-09T05:28:14.662Z,40.28
2024-03-09T05:30:43.699Z,36.97
2024-03-09T05:33:11.224Z,39.90
2024-03-09T05:35:38.560Z,39.22
2024-03-09T05:38:06.595Z,41.55
2024-03-09T05:40:35.936Z,39.22
2024-03-09T05:43:09.782Z,41.08
2024-03-09T05:45:37.918Z,38.78
2024-03-09T05:48:06.987Z,39.08
2024-03-09T05:50:37.449Z,37.10
2024-03-09T05:53:06.074Z,39.13
2024-03-09T05:55:33.569Z,39.47
2024-03-09T05:58:01.263Z,38.30
2024-03-09T06:00:31.343Z,40.95
2024-03-09T06:03:03.764Z,38.83
2024-03-09T06:05:32.497Z,42.85
2024-03-09T06:08:00.799Z,42.60
2024-03-09T06:10:29.416Z,38.28
2024-03-09T06:12:56.560Z,40.58
2024-03-09T06:15:25.018Z,41.00
2024-03-09T06:17:55.760Z,40.72
2024-03-09T06:20:28.424Z,40.38
2024-03-09T06:22:58.295Z,37.67
2024-03-09T06:25:27.756Z,37.33
2024-03-09T06:28:01.241Z,38.45
2024-03-09T06:30:31.571Z,40.10
2024-03-09T06:33:02.200Z,39.80
2024-03-09T06:35:31.043Z,39.38
2024-03-09T06:38:02.812Z,39.13
2024-03-09T06:40:47.989Z,37.78
2024-03-09T06:43:15.988Z,38.90
2024-03-09T06:45:48.097Z,38.50
2024-03-09T06:48:18.957Z,37.20
2024-03-09T06:50:46.461Z,37.80
2024-03-09T06:53:15.140Z,37.65
2024-03-09T06:55:42.796Z,36.30
2024-03-09T06:58:09.935Z,38.58
2024-03-09T07:00:38.771Z,39.17
2024-03-09T07:03:07.132Z,34.75
2024-03-09T07:05:39.446Z,35.28
2024-03-09T07:08:11.276Z,35.75
2024-03-09T07:10:38.919Z,32.90
2024-03-09T07:13:06.590Z,32.08
2024-03-09T07:15:34.226Z,32.05
2024-03-09T07:18:02.088Z,34.92
2024-03-09T07:20:30.313Z,31.17
2024-03-09T07:22:58.111Z,30.55
2024-03-09T07:25:27.634Z,30.23
2024-03-09T07:27:56.840Z,30.37
2024-03-09T07:30:25.638Z,29.15
2024-03-09T07:32:56.163Z,30.38
2024-03-09T07:35:29.438Z,29.45
2024-03-09T07:38:00.986Z,29.35
2024-03-09T07:40:35.395Z,30.98
2024-03-09T07:43:03.344Z,29.98
2024-03-09T07:45:31.725Z,28.77
2024-03-09T07:48:00.856Z,28.45
2024-03-09T07:50:29.568Z,30.70
2024-03-09T07:52:58.039Z,27.40
2024-03-09T07:55:30.405Z,29.35
2024-03-09T07:58:12.917Z,27.98
2024-03-09T08:00:47.014Z,29.08
2024-03-09T08:03:15.042Z,29.05
2024-03-09T08:05:42.991Z,29.05
2024-03-09T08:08:11.816Z,26.75
2024-03-09T08:10:53.707Z,27.30
2024-03-09T08:13:23.067Z,29.88
2024-03-09T08:15:50.275Z,27.42
2024-03-09T08:18:17.333Z,29.38
2024-03-09T08:20:44.459Z,29.15
2024-03-09T08:23:13.048Z,26.52
2024-03-09T08:25:40.205Z,28.00
2024-03-09T08:28:07.345Z,28.23
2024-03-09T08:30:34.931Z,29.58
2024-03-09T08:33:02.988Z,27.15
2024-03-09T08:35:34.849Z,28.92
2024-03-09T08:38:02.727Z,28.73
2024-03-09T08:40:33.060Z,26.30
2024-03-09T08:43:00.463Z,28.98
2024-03-09T08:45:31.194Z,30.40
2024-03-09T08:47:58.681Z,25.38
2024-03-09T08:50:29.033Z,27.95
2024-03-09T08:52:57.484Z,28.02
2024-03-09T08:55:25.019Z,29.65
2024-03-09T08:57:52.419Z,27.60
2024-03-09T09:00:22.007Z,28.00
2024-03-09T09:02:49.648Z,26.65
2024-03-09T09:05:20.227Z,26.77
2024-03-09T09:07:51.280Z,26.35
2024-03-09T09:10:22.872Z,27.88
2024-03-09T09:12:52.658Z,26.33
2024-03-09T09:15:20.776Z,26.25
2024-03-09T09:17:47.960Z,27.65
2024-03-09T09:20:16.717Z,26.85
2024-03-09T09:22:49.078Z,25.98
2024-03-09T09:25:18.524Z,26.25
2024-03-09T09:27:45.905Z,27.05
2024-03-09T09:30:13.652Z,27.02
2024-03-09T09:32:45.042Z,25.92
2024-03-09T09:35:13.906Z,25.30
2024-03-09T09:37:41.410Z,27.63
2024-03-09T09:40:09.353Z,26.75
2024-03-09T09:42:37.177Z,25.80
2024-03-09T09:45:05.719Z,25.42
2024-03-09T09:47:34.681Z,25.05
2024-03-09T09:50:02.628Z,25.35
2024-03-09T09:52:32.028Z,25.77
2024-03-09T09:55:03.800Z,27.05
2024-03-09T09:57:32.925Z,25.25
2024-03-09T10:00:00.381Z,24.63
2024-03-09T10:02:27.632Z,24.85
2024-03-09T10:04:55.254Z,24.30
2024-03-09T10:07:23.263Z,26.83
2024-03-09T10:09:50.927Z,23.90
2024-03-09T10:12:25.097Z,23.88
2024-03-09T10:14:53.814Z,22.80
2024-03-09T10:17:22.495Z,23.08
2024-03-09T10:19:50.643Z,23.30
2024-03-09T10:22:18.011Z,27.80
2024-03-09T10:24:55.465Z,23.52
2024-03-09T10:27:29.011Z,25.30
2024-03-09T10:30:12.416Z,25.00
2024-03-09T10:32:45.431Z,22.73
2024-03-09T10:35:13.994Z,23.10
2024-03-09T10:37:44.337Z,23.77
2024-03-09T10:40:14.320Z,22.23
2024-03-09T10:42:47.634Z,24.70
2024-03-09T10:45:17.210Z,23.02
2024-03-09T10:47:58.178Z,26.55
2024-03-09T10:50:30.845Z,23.55
2024-03-09T10:53:10.883Z,23.30
2024-03-09T10:56:05.932Z,23.30
2024-03-09T10:58:34.925Z,24.92
2024-03-09T11:01:02.543Z,24.02
2024-03-09T11:03:33.797Z,25.38
2024-03-09T11:06:01.085Z,23.92
2024-03-09T11:08:28.768Z,26.48
2024-03-09T11:10:56.603Z,23.85
2024-03-09T11:13:24.069Z,23.55
2024-03-09T11:15:55.540Z,22.92
2024-03-09T11:18:24.387Z,21.05
2024-03-09T11:21:02.991Z,20.88
2024-03-09T11:23:36.040Z,23.15
2024-03-09T11:26:05.253Z,22.10
2024-03-09T11:28:44.747Z,22.20
2024-03-09T11:31:12.831Z,24.07
2024-03-09T11:33:57.861Z,22.95
2024-03-09T11:37:05.713Z,22.05
2024-03-09T11:39:33.975Z,22.77
2024-03-09T11:42:13.592Z,21.52
2024-03-09T11:44:41.360Z,21.17
2024-03-09T11:47:09.215Z,20.40
2024-03-09T11:49:38.465Z,21.60
2024-03-09T11:52:08.940Z,20.38
2024-03-09T11:54:46.865Z,19.10
2024-03-09T11:57:14.060Z,19.50
2024-03-09T11:59:41.095Z,20.05
2024-03-09T12:02:09.164Z,20.63
2024-03-09T12:04:37.104Z,18.67
2024-03-09T12:07:10.494Z,20.73
2024-03-09T12:09:39.190Z,18.15
2024-03-09T12:12:14.320Z,17.80
2024-03-09T12:14:45.517Z,20.00
2024-03-09T12:17:13.774Z,20.40
2024-03-09T12:19:43.540Z,18.88
2024-03-09T12:22:11.805Z,19.52
2024-03-09T12:24:39.046Z,17.83
2024-03-09T12:27:06.768Z,18.33
2024-03-09T12:29:40.629Z,19.20
2024-03-09T12:32:08.649Z,18.40
2024-03-09T12:34:38.222Z,17.20
2024-03-09T12:37:05.734Z,17.45
2024-03-09T12:39:32.755Z,18.75
2024-03-09T12:42:02.979Z,18.80
2024-03-09T12:44:39.110Z,18.73
2024-03-09T12:47:06.590Z,18.73
2024-03-09T12:49:34.936Z,19.33
2024-03-09T12:52:03.707Z,18.65
2024-03-09T12:54:32.438Z,18.38
2024-03-09T12:57:04.632Z,18.83
2024-03-09T12:59:31.831Z,18.00
2024-03-09T13:01:59.886Z,18.80
2024-03-09T13:04:28.602Z,17.30
2024-03-09T13:06:58.632Z,16.73
2024-03-09T13:09:34.231Z,18.05
2024-03-09T13:12:04.439Z,18.02
2024-03-09T13:14:35.581Z,18.60
2024-03-09T13:17:03.998Z,19.13
2024-03-09T13:19:31.171Z,20.55
2024-03-09T13:22:01.393Z,18.38
2024-03-09T13:24:29.263Z,17.27
2024-03-09T13:26:57.541Z,19.23
2024-03-09T13:29:30.623Z,17.20
2024-03-09T13:32:00.072Z,17.42
2024-03-09T13:34:32.095Z,15.90
2024-03-09T13:37:00.963Z,17.30
2024-03-09T13:39:35.873Z,17.15
2024-03-09T13:42:10.529Z,17.92
2024-03-09T13:44:38.690Z,18.75
2024-03-09T13:47:07.416Z,20.30
2024-03-09T13:49:35.154Z,18.63
2024-03-09T13:52:03.973Z,18.13
2024-03-09T13:54:31.478Z,18.25
2024-03-09T13:56:58.559Z,18.90
2024-03-09T13:59:26.098Z,19.95
2024-03-09T14:01:53.643Z,18.92
2024-03-09T14:04:25.143Z,20.17
2024-03-09T14:07:07.300Z,19.40
2024-03-09T14:09:47.050Z,21.55
2024-03-09T14:12:17.137Z,20.48
2024-03-09T14:14:44.431Z,20.35
2024-03-09T14:17:14.041Z,21.05
2024-03-09T14:19:41.278Z,20.73
2024-03-09T14:22:12.624Z,19.60
2024-03-09T14:24:40.112Z,21.40
2024-03-09T14:27:10.110Z,21.33
2024-03-09T14:29:37.709Z,21.30
2024-03-09T14:32:07.971Z,20.02
2024-03-09T14:37:04.145Z,22.50
2024-03-09T14:39:32.089Z,22.38
2024-03-09T14:41:59.484Z,22.08
2024-03-09T14:44:28.724Z,22.17
2024-03-09T14:46:56.432Z,21.27
2024-03-09T14:49:23.777Z,22.27
2024-03-09T14:51:50.901Z,21.15
2024-03-09T14:54:21.119Z,22.08
2024-03-09T14:56:49.464Z,22.23
2024-03-09T14:59:17.494Z,21.95
2024-03-09T15:01:45.271Z,24.35
2024-03-09T15:04:16.354Z,23.20
2024-03-09T15:06:43.501Z,22.33
2024-03-09T15:09:21.731Z,22.13
2024-03-09T15:11:53.948Z,24.17
2024-03-09T15:14:24.825Z,22.15
2024-03-09T15:16:52.231Z,23.10
2024-03-09T15:19:20.311Z,22.25
2024-03-09T15:21:47.562Z,22.60
2024-03-09T15:24:14.730Z,21.35
2024-03-09T15:26:44.641Z,23.38
2024-03-09T15:29:15.936Z,23.58
2024-03-09T15:31:46.068Z,21.17
2024-03-09T15:34:13.188Z,21.42
2024-03-09T15:36:40.883Z,21.55
2024-03-09T15:39:10.743Z,21.33
2024-03-09T15:41:37.842Z,23.45
2024-03-09T15:44:07.993Z,20.73
2024-03-09T15:49:06.604Z,21.20
2024-03-09T15:51:37.180Z,20.58
2024-03-09T15:54:05.094Z,21.80
2024-03-09T15:56:34.763Z,20.52
2024-03-09T15:59:05.969Z,21.20
2024-03-09T16:01:36.871Z,21.23
2024-03-09T16:04:11.725Z,20.60
2024-03-09T16:06:39.120Z,20.38
2024-03-09T16:09:13.610Z,19.45
2024-03-09T16:11:42.760Z,20.70
2024-03-09T16:14:14.070Z,19.23
2024-03-09T16:16:42.024Z,20.40
2024-03-09T16:19:09.303Z,19.60
2024-03-09T16:21:38.941Z,20.77
2024-03-09T16:24:09.124Z,18.60
2024-03-09T16:26:36.430Z,21.00
2024-03-09T16:29:04.013Z,19.77
2024-03-09T16:31:36.956Z,19.75
2024-03-09T16:34:08.387Z,20.48
2024-03-09T16:36:36.081Z,19.92
2024-03-09T16:39:04.753Z,19.75
2024-03-09T16:41:32.467Z,20.45
2024-03-09T16:43:59.676Z,20.20
2024-03-09T16:46:28.077Z,20.48
2024-03-09T16:48:55.159Z,19.50
2024-03-09T16:51:22.426Z,19.17
2024-03-09T16:53:54.590Z,20.33
2024-03-09T16:56:22.235Z,19.90
2024-03-09T16:58:50.424Z,20.23
2024-03-09T17:01:17.801Z,19.33
2024-03-09T17:03:45.004Z,18.17
2024-03-09T17:06:17.234Z,18.95
2024-03-09T17:08:45.607Z,20.65
2024-03-09T17:11:15.651Z,19.90
2024-03-09T17:13:48.923Z,19.67
2024-03-09T17:16:19.291Z,19.75
2024-03-09T17:18:50.537Z,20.65
2024-03-09T17:21:18.608Z,20.83
2024-03-09T17:23:47.014Z,19.40
2024-03-09T17:26:21.541Z,20.00
2024-03-09T17:28:52.651Z,19.98
2024-03-09T17:31:21.538Z,20.42
2024-03-09T17:33:49.023Z,19.48
2024-03-09T17:36:19.057Z,19.35
2024-03-09T17:41:16.794Z,19.48
2024-03-09T17:43:44.166Z,19.98
2024-03-09T17:46:11.357Z,19.15
2024-03-09T17:48:38.506Z,19.63
2024-03-09T17:51:07.150Z,19.70
2024-03-09T17:53:35.228Z,19.27
2024-03-09T17:56:02.533Z,19.80
2024-03-09T17:58:30.027Z,19.40
2024-03-09T18:00:57.154Z,20.15
2024-03-09T18:03:25.655Z,20.35
2024-03-09T18:05:57.403Z,18.60
2024-03-09T18:08:25.252Z,19.40
2024-03-09T18:10:52.471Z,19.48
2024-03-09T18:13:20.597Z,19.00
2024-03-09T18:15:48.361Z,20.52
2024-03-09T18:18:15.855Z,20.60
2024-03-09T18:20:44.731Z,20.90
2024-03-09T18:23:13.077Z,19.75
2024-03-09T18:25:43.946Z,19.08
2024-03-09T18:28:13.544Z,18.58
2024-03-09T18:30:40.976Z,20.27
2024-03-09T18:33:10.614Z,20.50
2024-03-09T18:35:39.044Z,20.02
2024-03-09T18:38:07.702Z,19.65
2024-03-09T18:40:35.042Z,21.48
2024-03-09T18:43:03.993Z,20.20
2024-03-09T18:45:34.498Z,19.73
2024-03-09T18:48:03.045Z,20.02
2024-03-09T18:50:31.307Z,21.95
2024-03-09T18:53:03.317Z,21.13
2024-03-09T18:55:31.811Z,20.63
2024-03-09T18:58:01.205Z,23.85
2024-03-09T19:00:32.612Z,22.73
2024-03-09T19:03:01.770Z,21.20
2024-03-09T19:05:29.982Z,22.40
2024-03-09T19:08:01.132Z,21.00
2024-03-09T19:10:29.242Z,21.65
2024-03-09T19:12:56.488Z,22.40
2024-03-09T19:15:29.520Z,19.80
2024-03-09T19:18:02.238Z,21.48
2024-03-09T19:20:41.743Z,21.58
2024-03-09T19:23:23.519Z,19.70
2024-03-09T19:25:55.175Z,21.10
2024-03-09T19:28:30.083Z,19.27
2024-03-09T19:31:00.883Z,20.05
2024-03-09T19:33:30.168Z,20.38
2024-03-09T19:36:04.551Z,19.55
2024-03-09T19:38:34.002Z,19.55
2024-03-09T19:41:09.129Z,19.70
2024-03-09T19:43:46.681Z,19.95
2024-03-09T19:46:36.455Z,18.90
2024-03-09T19:49:17.230Z,18.45
2024-03-09T19:51:59.415Z,18.90
2024-03-09T19:54:33.923Z,18.75
2024-03-09T19:57:06.542Z,18.10
2024-03-09T19:59:48.648Z,19.65
2024-03-09T20:02:32.229Z,19.67
2024-03-09T20:05:05.692Z,18.02
2024-03-09T20:07:43.606Z,19.40
2024-03-09T20:10:47.099Z,19.20
2024-03-09T20:13:18.121Z,19.88
2024-03-09T20:18:33.466Z,18.70
2024-03-09T20:23:50.545Z,19.85
2024-03-09T20:29:30.774Z,18.70
2024-03-09T20:32:41.069Z,18.20
2024-03-09T20:35:34.515Z,19.40
2024-03-09T20:38:09.321Z,19.70
2024-03-09T20:40:55.755Z,19.60
2024-03-09T20:43:28.590Z,18.65
2024-03-09T20:46:04.642Z,20.27
2024-03-09T20:48:37.380Z,20.13
2024-03-09T20:51:22.226Z,19.13
2024-03-09T20:53:57.846Z,18.55
2024-03-09T20:56:45.746Z,19.48
2024-03-09T20:59:51.443Z,19.15
2024-03-09T21:02:31.232Z,18.88
2024-03-09T21:05:09.546Z,19.60
2024-03-09T21:07:54.103Z,19.95
2024-03-09T21:10:44.370Z,19.77
2024-03-09T21:13:34.602Z,18.30
2024-03-09T21:16:19.250Z,19.38
2024-03-09T21:18:55.186Z,19.55
2024-03-09T21:21:38.474Z,18.85
2024-03-09T21:24:20.560Z,18.77
2024-03-09T21:29:42.404Z,20.30
2024-03-09T21:32:29.256Z,20.20
2024-03-09T21:35:03.148Z,20.45
2024-03-09T21:38:01.464Z,21.98
2024-03-09T21:40:38.624Z,22.05
2024-03-09T21:43:22.784Z,21.38
2024-03-09T21:45:59.440Z,19.63
2024-03-09T21:48:32.712Z,21.15
2024-03-09T21:51:32.142Z,20.77
2024-03-09T21:54:29.209Z,22.63
2024-03-09T21:57:30.042Z,22.33
2024-03-09T22:00:33.707Z,22.95
2024-03-09T22:03:18.395Z,23.20
2024-03-09T22:06:05.212Z,22.25
2024-03-09T22:08:42.598Z,22.52
2024-03-09T22:11:34.355Z,22.90
2024-03-09T22:14:18.083Z,23.13
2024-03-09T22:16:52.352Z,22.73
2024-03-09T22:19:36.013Z,22.63
2024-03-09T22:22:08.577Z,23.48
2024-03-09T22:24:45.688Z,24.45
2024-03-09T22:27:30.079Z,22.83
2024-03-09T22:30:14.431Z,23.98
2024-03-09T22:32:57.239Z,23.50
2024-03-09T22:35:58.767Z,23.92
2024-03-09T22:38:37.249Z,23.27
2024-03-09T22:41:13.941Z,23.00
2024-03-09T22:43:55.855Z,22.90
2024-03-09T22:46:31.357Z,23.33
2024-03-09T22:49:09.925Z,22.45
2024-03-09T22:51:52.823Z,23.50
2024-03-09T22:54:27.996Z,25.20
2024-03-09T22:57:06.153Z,24.08
2024-03-09T22:59:47.325Z,24.15
2024-03-09T23:02:40.279Z,27.20
2024-03-09T23:08:13.999Z,23.63
2024-03-09T23:10:54.569Z,24.35
2024-03-09T23:13:58.523Z,24.00
2024-03-09T23:16:45.515Z,24.13
2024-03-09T23:19:57.812Z,23.52
2024-03-09T23:22:46.382Z,23.52
2024-03-09T23:25:19.637Z,25.98
2024-03-09T23:28:01.830Z,24.05
2024-03-09T23:30:33.635Z,24.33
2024-03-09T23:33:12.047Z,24.08
2024-03-09T23:35:41.024Z,25.65
2024-03-09T23:38:32.939Z,24.15
2024-03-09T23:41:13.302Z,24.30
2024-03-09T23:43:50.747Z,25.98
2024-03-09T23:46:50.871Z,24.33
2024-03-09T23:49:27.047Z,24.52
2024-03-09T23:52:03.963Z,25.70
2024-03-09T23:54:51.262Z,26.40
2024-03-09T23:57:30.753Z,25.88
